CFJ2 weather

Stuart Lake Hospital Helipad
Fort St. James, British Columbia, Canada

Public forecast

Using degrees Celsius for public forecast. Weather courtesy of forecast.io.

METAR (pilot weather report)

Closest report is Prince George Airport, 64.2 nm (118.8 km) ESE. Retrieved 2019/08/21 06:00 UTC (55 minutes ago):

CYXS 210600Z AUTO 19009KT 9SM BKN140 BKN160 19/11 A2969 RMK SLP055 DENSITY ALT 3500FT

TAF (pilot weather forecast)

Closest forecast is Prince George Airport, 64.2 nm (118.8 km) ESE. Retrieved 2019/08/21 07:42 UTC (0 seconds ago):

TAF CYXS 210639Z 2107/2119 19010KT P6SM BKN140 BKN160 FM211600 18012G22KT P6SM SCT040 BKN080 TEMPO 2116/2118 P6SM -SHRA FM211800 20015G25KT P6SM SCT040 BKN060 TEMPO 2118/2119 P6SM -SHRA PROB30 2118/2119 VRB15G30KT 4SM TSRA BKN040CB RMK FCST BASED ON AUTO OBS. NXT FCST BY 211300Z